Time;durP1;ratioP1;P1;durP2;ratioP2;P2;SDS_P1;SDS_P2;PMS_P1;PMS_P2;Temp;Humidity;BMP_temperature;BMP_pressure;BME280_temperature;BME280_humidity;BME280_pressure;Samples;Min_cycle;Max_cycle;Signal;HPM_P1;HPM_P2
2022/07/13 00:01:42;;;;;;;0.40;0.40;;;;;17.80;99058.00;;;;5113790;28;20228;-68
2022/07/13 00:04:10;;;;;;;0.40;0.40;;;;;17.80;99062.00;;;;5113989;28;20240;-69
2022/07/13 00:06:36;;;;;;;0.83;0.83;;;;;17.80;99064.00;;;;5113857;28;20194;-68
2022/07/13 00:09:03;;;;;;;0.53;0.53;;;;;17.80;99060.00;;;;5113866;28;20283;-69
2022/07/13 00:11:32;;;;;;;0.40;0.40;;;;;17.80;99063.00;;;;5113904;28;20574;-69
2022/07/13 00:13:59;;;;;;;0.47;0.47;;;;;17.70;99052.00;;;;5113565;28;20205;-68
2022/07/13 00:16:26;;;;;;;0.50;0.50;;;;;17.80;99059.00;;;;5113476;28;20205;-68
2022/07/13 00:18:55;;;;;;;0.60;0.60;;;;;17.70;99051.00;;;;5113476;28;20194;-69
2022/07/13 00:21:23;;;;;;;0.50;0.50;;;;;17.70;99058.00;;;;5113531;28;20213;-69
2022/07/13 00:23:50;;;;;;;0.50;0.50;;;;;17.60;99062.00;;;;5113463;28;20206;-69
2022/07/13 00:26:17;;;;;;;0.40;0.40;;;;;17.60;99059.00;;;;5113467;28;20656;-69
2022/07/13 00:28:46;;;;;;;0.60;0.60;;;;;17.70;99055.00;;;;5113400;28;20202;-68
2022/07/13 00:31:13;;;;;;;0.40;0.40;;;;;17.50;99065.00;;;;5116934;28;20241;-69
2022/07/13 00:33:42;;;;;;;0.73;0.73;;;;;17.40;99051.00;;;;5116816;28;20221;-68
2022/07/13 00:36:09;;;;;;;0.50;0.50;;;;;17.40;99051.00;;;;5116873;28;20703;-68
2022/07/13 00:38:37;;;;;;;0.50;0.50;;;;;17.40;99049.00;;;;5116780;28;20225;-69
2022/07/13 00:41:05;;;;;;;0.40;0.40;;;;;17.30;99050.00;;;;5116760;28;20278;-68
2022/07/13 00:43:32;;;;;;;0.50;0.50;;;;;17.30;99043.00;;;;5116663;28;20669;-69
2022/07/13 00:45:59;;;;;;;0.40;0.40;;;;;17.30;99013.00;;;;5116714;28;20273;-69
2022/07/13 00:48:27;;;;;;;0.40;0.40;;;;;17.20;99038.00;;;;5116603;28;20236;-69
2022/07/13 00:50:54;;;;;;;0.60;0.60;;;;;17.20;99032.00;;;;5116666;28;20644;-68
2022/07/13 00:53:22;;;;;;;0.40;0.40;;;;;17.20;99036.00;;;;5116501;28;20760;-69
2022/07/13 00:55:53;;;;;;;0.50;0.50;;;;;17.10;99047.00;;;;5116630;28;20208;-68
2022/07/13 00:58:20;;;;;;;0.77;0.77;;;;;17.10;99031.00;;;;5116450;28;20651;-68
2022/07/13 01:00:47;;;;;;;0.60;0.60;;;;;17.00;99041.00;;;;5116382;28;20224;-68
2022/07/13 01:03:16;;;;;;;0.50;0.50;;;;;16.90;99036.00;;;;5116307;28;20286;-68
2022/07/13 01:05:46;;;;;;;0.67;0.67;;;;;16.90;99033.00;;;;5116450;28;20202;-67
2022/07/13 01:08:15;;;;;;;0.40;0.40;;;;;16.90;99036.00;;;;5116228;28;20297;-68
2022/07/13 01:10:45;;;;;;;0.70;0.70;;;;;17.00;99025.00;;;;5116684;28;20625;-69
2022/07/13 01:13:16;;;;;;;0.50;0.50;;;;;17.00;99025.00;;;;5116380;28;20226;-69
2022/07/13 01:15:44;;;;;;;0.60;0.60;;;;;17.10;99024.00;;;;5116281;28;20692;-68
2022/07/13 01:18:12;;;;;;;0.50;0.50;;;;;16.90;99029.00;;;;5098155;28;20217;-69
2022/07/13 01:20:42;;;;;;;0.50;0.50;;;;;17.00;99021.00;;;;5116341;28;20269;-68
2022/07/13 01:23:11;;;;;;;0.70;0.70;;;;;16.90;99021.00;;;;5116067;28;20281;-68
2022/07/13 01:25:41;;;;;;;0.80;0.80;;;;;16.90;99021.00;;;;5116148;28;20254;-68
2022/07/13 01:28:08;;;;;;;0.50;0.50;;;;;16.90;99022.00;;;;5115991;28;20581;-68
2022/07/13 01:30:35;;;;;;;0.70;0.70;;;;;17.00;99022.00;;;;5115996;28;20202;-68
2022/07/13 01:33:02;;;;;;;0.50;0.50;;;;;17.10;99030.00;;;;5115931;28;20748;-68
2022/07/13 01:35:30;;;;;;;0.50;0.50;;;;;17.10;99022.00;;;;5115973;28;20198;-68
2022/07/13 01:37:57;;;;;;;0.73;0.73;;;;;17.10;99021.00;;;;5115949;28;20197;-69
2022/07/13 01:40:24;;;;;;;0.40;0.40;;;;;17.20;99016.00;;;;5115480;28;20305;-68
2022/07/13 01:42:52;;;;;;;1.10;0.70;;;;;17.20;99015.00;;;;5115835;28;20240;-68
2022/07/13 01:45:21;;;;;;;0.40;0.40;;;;;17.10;99015.00;;;;5097807;28;20679;-69
2022/07/13 01:47:50;;;;;;;0.47;0.47;;;;;17.20;99014.00;;;;5115749;28;20517;-68
2022/07/13 01:50:18;;;;;;;0.50;0.50;;;;;17.10;99019.00;;;;5115720;28;20212;-68
2022/07/13 01:52:46;;;;;;;0.40;0.40;;;;;17.20;99010.00;;;;5115555;28;20190;-68
2022/07/13 01:55:13;;;;;;;0.47;0.47;;;;;17.00;99006.00;;;;5115713;28;20686;-69
2022/07/13 01:57:41;;;;;;;0.73;0.73;;;;;17.10;99002.00;;;;5115584;28;20198;-69
2022/07/13 02:00:12;;;;;;;0.90;0.90;;;;;17.20;99011.00;;;;5115438;28;20226;-70
2022/07/13 02:02:42;;;;;;;0.50;0.50;;;;;17.10;99007.00;;;;5115575;28;20194;-71
2022/07/13 02:05:09;;;;;;;0.40;0.40;;;;;17.10;99002.00;;;;5097753;28;20317;-70
2022/07/13 02:07:36;;;;;;;0.63;0.63;;;;;17.10;98994.00;;;;5115592;28;20204;-68
2022/07/13 02:10:05;;;;;;;0.60;0.60;;;;;17.10;98991.00;;;;5115322;28;20309;-68
2022/07/13 02:12:31;;;;;;;0.50;0.50;;;;;17.20;98985.00;;;;5115428;28;20190;-68
2022/07/13 02:14:59;;;;;;;0.60;0.60;;;;;17.20;98986.00;;;;5115297;28;20664;-68
2022/07/13 02:17:26;;;;;;;0.80;0.80;;;;;17.20;98976.00;;;;5097376;28;20610;-68
2022/07/13 02:19:56;;;;;;;0.60;0.60;;;;;17.20;98975.00;;;;5115138;28;20229;-69
2022/07/13 02:22:23;;;;;;;0.60;0.60;;;;;17.20;98973.00;;;;5115266;28;20201;-68
2022/07/13 02:24:50;;;;;;;0.43;0.43;;;;;17.20;98966.00;;;;5115108;28;20214;-68
2022/07/13 02:27:17;;;;;;;0.47;0.47;;;;;17.20;98963.00;;;;5115320;28;20286;-68
2022/07/13 02:29:46;;;;;;;0.50;0.50;;;;;17.20;98960.00;;;;5115037;28;20238;-69
2022/07/13 02:32:13;;;;;;;0.40;0.40;;;;;17.30;98962.00;;;;5115045;28;20208;-69
2022/07/13 02:34:40;;;;;;;0.50;0.50;;;;;17.30;98960.00;;;;5114968;28;20222;-68
2022/07/13 02:37:11;;;;;;;2.27;0.83;;;;;17.50;98969.00;;;;5115137;28;20266;-68
2022/07/13 02:39:39;;;;;;;0.50;0.50;;;;;17.40;98962.00;;;;5114848;28;20541;-68
2022/07/13 02:42:05;;;;;;;0.60;0.60;;;;;17.40;98968.00;;;;5114894;28;20216;-68
2022/07/13 02:44:35;;;;;;;0.57;0.57;;;;;17.20;98963.00;;;;5114764;28;20194;-69
2022/07/13 02:47:04;;;;;;;0.63;0.63;;;;;17.30;98967.00;;;;5114852;28;20209;-68
2022/07/13 02:49:31;;;;;;;0.50;0.50;;;;;17.40;98967.00;;;;5114744;28;20193;-68
2022/07/13 02:51:58;;;;;;;0.70;0.70;;;;;17.40;98963.00;;;;5114065;28;20258;-69
2022/07/13 02:54:26;;;;;;;0.43;0.43;;;;;17.40;98965.00;;;;5114921;28;20198;-68
2022/07/13 02:56:55;;;;;;;0.60;0.60;;;;;17.40;98963.00;;;;5114713;28;20197;-68
2022/07/13 02:59:24;;;;;;;0.50;0.50;;;;;17.40;98954.00;;;;5114590;28;20206;-69
2022/07/13 03:01:53;;;;;;;0.50;0.50;;;;;17.30;98968.00;;;;5114621;28;20201;-69
2022/07/13 03:04:22;;;;;;;0.50;0.50;;;;;17.20;98959.00;;;;5114581;28;20218;-68
2022/07/13 03:06:50;;;;;;;0.60;0.60;;;;;17.10;98963.00;;;;5114608;28;20242;-68
2022/07/13 03:09:17;;;;;;;0.60;0.60;;;;;17.20;98952.00;;;;5114553;28;20254;-68
2022/07/13 03:11:43;;;;;;;0.43;0.43;;;;;17.20;98951.00;;;;5114452;28;20325;-68
2022/07/13 03:14:13;;;;;;;0.50;0.50;;;;;17.10;98953.00;;;;5114408;28;20690;-68
2022/07/13 03:16:40;;;;;;;0.70;0.70;;;;;17.10;98953.00;;;;5114403;28;20178;-68
2022/07/13 03:19:07;;;;;;;1.40;0.73;;;;;17.10;98950.00;;;;5114368;28;20190;-69
2022/07/13 03:21:36;;;;;;;0.50;0.50;;;;;17.10;98954.00;;;;5096265;28;20325;-68
2022/07/13 03:24:06;;;;;;;0.40;0.40;;;;;17.20;98946.00;;;;5114250;28;20573;-69
2022/07/13 03:26:33;;;;;;;0.60;0.60;;;;;17.10;98951.00;;;;5114180;28;20665;-70
2022/07/13 03:29:00;;;;;;;0.50;0.50;;;;;17.20;98950.00;;;;5114251;28;20251;-69
2022/07/13 03:31:27;;;;;;;0.67;0.67;;;;;17.10;98948.00;;;;5114271;28;20222;-68
2022/07/13 03:33:56;;;;;;;0.57;0.57;;;;;17.10;98948.00;;;;5114159;28;20193;-68
2022/07/13 03:36:23;;;;;;;0.80;0.80;;;;;17.10;98948.00;;;;5114005;28;20218;-69
2022/07/13 03:38:51;;;;;;;0.60;0.60;;;;;17.00;98945.00;;;;5114106;28;20297;-68
2022/07/13 03:41:21;;;;;;;0.60;0.60;;;;;17.10;98950.00;;;;5113861;28;20249;-68
2022/07/13 03:43:47;;;;;;;0.57;0.57;;;;;17.10;98950.00;;;;5114013;28;20719;-68
2022/07/13 03:46:14;;;;;;;0.70;0.70;;;;;17.10;98947.00;;;;5113918;28;20225;-68
2022/07/13 03:48:41;;;;;;;0.83;0.83;;;;;17.10;98939.00;;;;5096073;28;20231;-68
2022/07/13 03:51:08;;;;;;;0.53;0.53;;;;;17.10;98941.00;;;;5113894;28;20232;-68
2022/07/13 03:53:37;;;;;;;1.10;1.00;;;;;17.10;98948.00;;;;5113889;28;20653;-69
2022/07/13 03:56:05;;;;;;;0.70;0.70;;;;;17.00;98949.00;;;;5113773;28;20217;-68
2022/07/13 03:58:32;;;;;;;0.50;0.50;;;;;17.00;98949.00;;;;5113838;28;20194;-68
2022/07/13 04:00:59;;;;;;;0.50;0.50;;;;;17.10;98945.00;;;;5113628;28;20217;-68
2022/07/13 04:03:26;;;;;;;0.50;0.50;;;;;17.00;98938.00;;;;5114741;28;20206;-68
2022/07/13 04:05:53;;;;;;;0.70;0.70;;;;;17.00;98946.00;;;;5117368;28;20196;-68
2022/07/13 04:08:20;;;;;;;0.60;0.60;;;;;16.90;98940.00;;;;5117343;28;20298;-68
2022/07/13 04:10:46;;;;;;;0.50;0.50;;;;;16.90;98934.00;;;;5117360;28;20202;-68
2022/07/13 04:13:13;;;;;;;0.50;0.50;;;;;16.80;98927.00;;;;5117339;28;20206;-68
2022/07/13 04:15:43;;;;;;;0.80;0.80;;;;;16.70;98927.00;;;;5099221;28;20198;-69
2022/07/13 04:18:10;;;;;;;0.50;0.50;;;;;16.80;98913.00;;;;5117219;28;20217;-68
2022/07/13 04:20:37;;;;;;;0.50;0.50;;;;;16.70;98911.00;;;;5117022;28;20232;-68
2022/07/13 04:23:04;;;;;;;0.70;0.70;;;;;16.80;98914.00;;;;5117112;28;20509;-69
2022/07/13 04:25:31;;;;;;;0.60;0.60;;;;;16.70;98908.00;;;;5117069;28;20194;-69
2022/07/13 04:27:57;;;;;;;0.60;0.60;;;;;16.80;98916.00;;;;5116975;28;20232;-69
2022/07/13 04:30:24;;;;;;;0.60;0.60;;;;;16.80;98915.00;;;;5116973;28;20210;-69
2022/07/13 04:32:52;;;;;;;0.50;0.50;;;;;16.80;98920.00;;;;5098916;28;20244;-69
2022/07/13 04:35:19;;;;;;;0.60;0.60;;;;;16.80;98924.00;;;;5116945;28;20190;-68
2022/07/13 04:37:45;;;;;;;0.60;0.60;;;;;16.90;98924.00;;;;5116852;28;20220;-70
2022/07/13 04:40:15;;;;;;;0.50;0.50;;;;;16.90;98919.00;;;;5116767;28;20221;-69
2022/07/13 04:42:41;;;;;;;0.63;0.63;;;;;17.10;98924.00;;;;5116786;28;20660;-69
2022/07/13 04:45:09;;;;;;;0.60;0.60;;;;;17.00;98931.00;;;;5116769;28;20194;-70
2022/07/13 04:47:37;;;;;;;0.80;0.80;;;;;17.10;98931.00;;;;5098893;28;20317;-69
2022/07/13 04:50:05;;;;;;;0.83;0.83;;;;;17.10;98930.00;;;;5116791;28;20198;-68
2022/07/13 04:52:32;;;;;;;0.47;0.47;;;;;17.20;98929.00;;;;5116661;28;20282;-68
2022/07/13 04:55:01;;;;;;;0.60;0.60;;;;;17.10;98929.00;;;;5116651;28;20222;-68
2022/07/13 04:57:29;;;;;;;0.70;0.70;;;;;17.10;98925.00;;;;5116590;28;20241;-68
2022/07/13 04:59:56;;;;;;;0.63;0.63;;;;;17.30;98934.00;;;;5116588;28;20240;-68
2022/07/13 05:02:23;;;;;;;0.60;0.60;;;;;17.40;98920.00;;;;5116437;28;20293;-68
2022/07/13 05:04:52;;;;;;;0.97;0.97;;;;;17.40;98924.00;;;;5098477;28;20214;-68
2022/07/13 05:07:19;;;;;;;0.80;0.80;;;;;17.50;98912.00;;;;5116418;28;20194;-68
2022/07/13 05:09:46;;;;;;;0.60;0.60;;;;;17.50;98930.00;;;;5116482;28;20292;-68
2022/07/13 05:12:13;;;;;;;0.50;0.50;;;;;17.50;98930.00;;;;5116213;28;20198;-70
2022/07/13 05:14:40;;;;;;;0.67;0.67;;;;;17.60;98937.00;;;;5097946;28;20198;-68
2022/07/13 05:17:09;;;;;;;0.67;0.67;;;;;17.70;98942.00;;;;5116206;28;20649;-68
2022/07/13 05:19:36;;;;;;;0.60;0.60;;;;;17.80;98937.00;;;;5116104;28;20221;-68
2022/07/13 05:22:03;;;;;;;0.70;0.70;;;;;17.90;98945.00;;;;5116103;28;20301;-68
2022/07/13 05:24:30;;;;;;;0.60;0.60;;;;;18.00;98938.00;;;;5116217;28;20190;-68
2022/07/13 05:26:59;;;;;;;0.50;0.50;;;;;18.10;98940.00;;;;5116106;28;20205;-69
2022/07/13 05:29:26;;;;;;;30.50;1.37;;;;;18.10;98937.00;;;;5116719;28;20236;-69
2022/07/13 05:31:53;;;;;;;1.17;0.80;;;;;18.30;98928.00;;;;5098139;28;20259;-68
2022/07/13 05:34:20;;;;;;;0.70;0.70;;;;;18.40;98935.00;;;;5115997;28;20270;-69
2022/07/13 05:36:47;;;;;;;0.90;0.90;;;;;18.40;98933.00;;;;5116150;28;20198;-69
2022/07/13 05:39:13;;;;;;;0.60;0.60;;;;;18.50;98927.00;;;;5115972;28;20202;-68
2022/07/13 05:41:41;;;;;;;1.00;1.00;;;;;18.50;98931.00;;;;5115744;28;20287;-68
2022/07/13 05:44:08;;;;;;;0.47;0.47;;;;;18.50;98930.00;;;;5115776;28;20218;-68
2022/07/13 05:46:35;;;;;;;0.60;0.60;;;;;18.60;98926.00;;;;5115600;28;20210;-68
2022/07/13 05:49:01;;;;;;;0.70;0.70;;;;;18.60;98926.00;;;;5115705;28;20320;-68
2022/07/13 05:51:28;;;;;;;0.53;0.53;;;;;18.60;98934.00;;;;5115706;28;20508;-68
2022/07/13 05:53:57;;;;;;;0.50;0.50;;;;;18.70;98931.00;;;;5115647;28;20232;-69
2022/07/13 05:56:24;;;;;;;0.57;0.57;;;;;18.80;98925.00;;;;5115646;28;20202;-69
2022/07/13 05:58:52;;;;;;;0.50;0.50;;;;;18.90;98925.00;;;;5115476;28;20233;-69
2022/07/13 06:01:18;;;;;;;0.50;0.50;;;;;19.10;98920.00;;;;5115509;28;20224;-69
2022/07/13 06:03:45;;;;;;;1.17;1.07;;;;;19.20;98923.00;;;;5115476;28;20255;-69
2022/07/13 06:06:12;;;;;;;0.70;0.70;;;;;19.40;98917.00;;;;5115662;28;20710;-69
2022/07/13 06:08:42;;;;;;;0.50;0.50;;;;;19.60;98918.00;;;;5115438;28;20256;-69
2022/07/13 06:11:08;;;;;;;0.40;0.40;;;;;19.70;98918.00;;;;5115527;28;20198;-68
2022/07/13 06:13:36;;;;;;;0.90;0.90;;;;;19.90;98924.00;;;;5115193;28;20302;-69
2022/07/13 06:16:06;;;;;;;1.57;1.47;;;;;20.10;98924.00;;;;5115364;28;20194;-69
2022/07/13 06:18:36;;;;;;;0.60;0.60;;;;;20.30;98928.00;;;;5115229;28;20197;-69
2022/07/13 06:21:03;;;;;;;0.50;0.50;;;;;20.40;98929.00;;;;5115061;28;20224;-68
2022/07/13 06:23:30;;;;;;;2.20;1.20;;;;;20.60;98922.00;;;;5115157;28;20200;-69
2022/07/13 06:25:58;;;;;;;4.23;0.80;;;;;20.60;98915.00;;;;5114902;28;20225;-69
2022/07/13 06:28:25;;;;;;;0.40;0.40;;;;;20.60;98927.00;;;;5114061;28;20319;-69
2022/07/13 06:30:52;;;;;;;0.50;0.50;;;;;20.70;98930.00;;;;5114917;28;20248;-69
2022/07/13 06:33:19;;;;;;;0.60;0.60;;;;;20.80;98938.00;;;;5115043;28;20193;-70
2022/07/13 06:35:46;;;;;;;0.83;0.83;;;;;20.90;98931.00;;;;5115098;28;20205;-72
2022/07/13 06:38:13;;;;;;;0.57;0.57;;;;;20.90;98932.00;;;;5115235;28;20190;-70
2022/07/13 06:40:40;;;;;;;0.60;0.60;;;;;21.00;98929.00;;;;5114989;28;20217;-70
2022/07/13 06:43:09;;;;;;;1.45;0.93;;;;;21.10;98925.00;;;;5115015;28;20236;-70
2022/07/13 06:45:36;;;;;;;0.85;0.85;;;;;21.10;98929.00;;;;5114882;28;20708;-70
2022/07/13 06:48:03;;;;;;;4.53;0.90;;;;;21.20;98925.00;;;;5114683;28;20217;-71
2022/07/13 06:50:30;;;;;;;0.50;0.50;;;;;21.30;98926.00;;;;5114982;28;20186;-71
2022/07/13 06:52:57;;;;;;;0.47;0.47;;;;;21.30;98930.00;;;;5114712;28;20204;-70
2022/07/13 06:55:26;;;;;;;0.50;0.50;;;;;21.40;98935.00;;;;5114755;28;20653;-71
2022/07/13 06:57:53;;;;;;;0.43;0.43;;;;;21.60;98932.00;;;;5114776;28;20202;-71
2022/07/13 07:00:23;;;;;;;0.50;0.50;;;;;21.70;98936.00;;;;5114676;28;20287;-70
2022/07/13 07:02:49;;;;;;;0.70;0.70;;;;;21.80;98931.00;;;;5114744;28;20189;-71
2022/07/13 07:05:16;;;;;;;0.40;0.40;;;;;21.90;98936.00;;;;5114512;28;20194;-70
2022/07/13 07:07:46;;;;;;;0.40;0.40;;;;;22.00;98930.00;;;;5114588;28;20209;-71
2022/07/13 07:10:13;;;;;;;0.30;0.30;;;;;22.10;98933.00;;;;5114522;28;20221;-71
2022/07/13 07:12:40;;;;;;;8.60;0.88;;;;;22.20;98934.00;;;;5114438;28;20229;-71
2022/07/13 07:15:08;;;;;;;0.50;0.50;;;;;22.30;98928.00;;;;5114361;28;20244;-70
2022/07/13 07:17:44;;;;;;;0.40;0.40;;;;;22.50;98917.00;;;;5114321;28;20230;-71
2022/07/13 07:20:11;;;;;;;0.73;0.73;;;;;22.70;98916.00;;;;5114361;28;20217;-71
2022/07/13 07:22:39;;;;;;;0.93;0.93;;;;;22.90;98915.00;;;;5114238;28;20214;-70
2022/07/13 07:25:07;;;;;;;0.50;0.50;;;;;23.10;98913.00;;;;5114402;28;20233;-70
2022/07/13 07:27:39;;;;;;;0.50;0.50;;;;;23.30;98911.00;;;;5114267;28;20720;-71
2022/07/13 07:30:09;;;;;;;0.65;0.65;;;;;23.50;98913.00;;;;5114212;28;20217;-72
2022/07/13 07:32:35;;;;;;;0.50;0.50;;;;;23.60;98906.00;;;;5114396;28;20202;-70
2022/07/13 07:35:02;;;;;;;0.50;0.50;;;;;23.80;98910.00;;;;5114234;28;20228;-71
2022/07/13 07:37:29;;;;;;;0.60;0.60;;;;;23.90;98905.00;;;;5114107;28;20205;-71
2022/07/13 07:39:56;;;;;;;0.55;0.55;;;;;24.20;98905.00;;;;5113674;28;20214;-70
2022/07/13 07:42:24;;;;;;;0.40;0.40;;;;;24.40;98905.00;;;;5114107;28;20217;-70
2022/07/13 07:44:50;;;;;;;1.40;0.90;;;;;24.50;98903.00;;;;5114074;28;20194;-70
2022/07/13 07:47:17;;;;;;;0.40;0.40;;;;;24.70;98903.00;;;;5114029;28;20742;-70
2022/07/13 07:49:46;;;;;;;0.52;0.52;;;;;25.00;98903.00;;;;5113982;28;20206;-70
2022/07/13 07:52:15;;;;;;;0.40;0.40;;;;;25.10;98897.00;;;;5113889;28;20665;-71
2022/07/13 07:54:42;;;;;;;0.95;0.70;;;;;25.10;98909.00;;;;5113903;28;20354;-70
2022/07/13 07:57:12;;;;;;;0.50;0.50;;;;;25.30;98908.00;;;;5113820;28;20236;-70
2022/07/13 07:59:39;;;;;;;0.30;0.30;;;;;25.50;98907.00;;;;5113769;28;20276;-71
2022/07/13 08:02:07;;;;;;;0.55;0.55;;;;;25.50;98903.00;;;;5113872;28;20196;-70
2022/07/13 08:04:34;;;;;;;0.50;0.50;;;;;25.60;98904.00;;;;5113602;28;20266;-70
2022/07/13 08:07:01;;;;;;;0.50;0.50;;;;;25.70;98911.00;;;;5113534;28;20208;-71
2022/07/13 08:09:28;;;;;;;0.50;0.50;;;;;25.90;98902.00;;;;5113530;28;20229;-70
2022/07/13 08:11:54;;;;;;;0.45;0.45;;;;;26.00;98907.00;;;;5113623;28;20198;-71
2022/07/13 08:14:24;;;;;;;0.50;0.50;;;;;26.10;98910.00;;;;5113585;28;20282;-71
2022/07/13 08:16:51;;;;;;;0.40;0.40;;;;;26.10;98908.00;;;;5113615;28;20217;-71
2022/07/13 08:19:18;;;;;;;0.63;0.63;;;;;26.20;98903.00;;;;5113626;28;20564;-70
2022/07/13 08:21:45;;;;;;;0.52;0.52;;;;;26.50;98897.00;;;;5113444;28;20304;-71
2022/07/13 08:24:12;;;;;;;0.70;0.70;;;;;26.60;98895.00;;;;5113333;28;20594;-71
2022/07/13 08:26:39;;;;;;;1.13;1.13;;;;;26.80;98898.00;;;;5113421;28;20652;-69
2022/07/13 08:29:08;;;;;;;0.50;0.50;;;;;26.70;98898.00;;;;5095529;28;20641;-69
2022/07/13 08:31:35;;;;;;;0.50;0.50;;;;;26.70;98895.00;;;;5113383;28;20203;-69
2022/07/13 08:39:32;;;;;;;1.20;0.93;;;;;26.70;98894.00;;;;5113342;28;20214;-70
2022/07/13 08:41:59;;;;;;;0.50;0.50;;;;;26.50;98898.00;;;;5113275;28;20551;-70
2022/07/13 08:44:27;;;;;;;0.70;0.70;;;;;26.50;98895.00;;;;5113269;28;20301;-70
2022/07/13 08:46:58;;;;;;;0.50;0.50;;;;;26.50;98896.00;;;;5113286;28;20277;-70
2022/07/13 08:49:28;;;;;;;0.75;0.75;;;;;26.40;98898.00;;;;5095315;28;20209;-69
2022/07/13 08:51:55;;;;;;;0.50;0.50;;;;;26.60;98886.00;;;;5116180;28;20233;-70
2022/07/13 08:54:22;;;;;;;14.18;1.05;;;;;26.70;98883.00;;;;5116576;28;20289;-69
2022/07/13 08:56:52;;;;;;;0.50;0.50;;;;;26.50;98883.00;;;;5098594;28;20290;-69
2022/07/13 08:59:18;;;;;;;0.80;0.80;;;;;26.30;98886.00;;;;5116629;28;20293;-69
2022/07/13 09:01:45;;;;;;;0.50;0.50;;;;;26.40;98879.00;;;;5098434;28;20325;-70
2022/07/13 09:08:05;;;;;;;0.70;0.70;;;;;26.60;98886.00;;;;5116573;28;20236;-69
2022/07/13 09:10:32;;;;;;;0.60;0.60;;;;;26.80;98888.00;;;;5098427;28;20198;-69
2022/07/13 09:12:59;;;;;;;0.40;0.40;;;;;26.90;98884.00;;;;5098383;28;20208;-69
2022/07/13 09:15:26;;;;;;;0.45;0.45;;;;;27.10;98886.00;;;;5116374;28;20186;-73
2022/07/13 09:17:53;;;;;;;0.63;0.63;;;;;27.20;98894.00;;;;5116181;28;20206;-70
2022/07/13 09:20:23;;;;;;;0.50;0.50;;;;;27.10;98891.00;;;;5116093;28;20226;-71
2022/07/13 09:22:51;;;;;;;0.45;0.45;;;;;27.00;98891.00;;;;5116186;28;20194;-72
2022/07/13 09:25:27;;;;;;;0.70;0.70;;;;;27.10;98896.00;;;;5098063;28;20201;-73
2022/07/13 09:27:54;;;;;;;0.50;0.50;;;;;27.10;98890.00;;;;5116104;28;20206;-72
2022/07/13 09:30:23;;;;;;;0.50;0.50;;;;;27.10;98889.00;;;;5116103;28;20191;-73
2022/07/13 09:32:57;;;;;;;0.50;0.50;;;;;27.00;98891.00;;;;5116055;28;20217;-73
2022/07/13 09:35:42;;;;;;;0.57;0.57;;;;;27.20;98889.00;;;;5116055;28;20202;-73
2022/07/13 09:38:09;;;;;;;0.52;0.52;;;;;27.20;98897.00;;;;5115920;28;20229;-74
2022/07/13 09:40:37;;;;;;;0.50;0.50;;;;;27.10;98889.00;;;;5098068;28;20547;-73
2022/07/13 09:48:37;;;;;;;0.40;0.40;;;;;27.40;98892.00;;;;5115803;28;20197;-73
2022/07/13 09:51:04;;;;;;;0.43;0.43;;;;;27.60;98902.00;;;;5115780;28;20273;-72
2022/07/13 09:53:32;;;;;;;0.60;0.60;;;;;27.60;98904.00;;;;5115803;28;20210;-73
2022/07/13 09:56:01;;;;;;;0.55;0.55;;;;;27.60;98896.00;;;;5115621;28;20612;-73
2022/07/13 09:58:32;;;;;;;0.60;0.60;;;;;27.80;98900.00;;;;5115600;28;20193;-72
2022/07/13 10:01:01;;;;;;;0.50;0.50;;;;;27.90;98902.00;;;;5115266;28;20229;-74
2022/07/13 10:03:29;;;;;;;0.57;0.57;;;;;27.80;98900.00;;;;5115443;28;20224;-73
2022/07/13 10:05:57;;;;;;;0.63;0.63;;;;;27.90;98906.00;;;;5115545;28;20194;-75
2022/07/13 10:08:24;;;;;;;0.50;0.50;;;;;27.80;98899.00;;;;5115346;28;20221;-73
2022/07/13 10:10:52;;;;;;;0.70;0.70;;;;;27.90;98892.00;;;;5115386;28;20190;-72
2022/07/13 10:13:22;;;;;;;0.50;0.50;;;;;27.90;98896.00;;;;5115199;28;20293;-71
2022/07/13 10:15:49;;;;;;;0.60;0.60;;;;;28.00;98897.00;;;;5115244;28;20190;-72
2022/07/13 10:18:22;;;;;;;0.88;0.88;;;;;28.10;98891.00;;;;5115275;28;20209;-74
2022/07/13 10:20:53;;;;;;;0.50;0.50;;;;;28.30;98896.00;;;;5115082;28;20575;-72
2022/07/13 10:23:34;;;;;;;0.60;0.60;;;;;28.30;98887.00;;;;5115286;28;20198;-72
2022/07/13 10:26:01;;;;;;;0.70;0.70;;;;;28.40;98887.00;;;;5115143;28;20209;-70
2022/07/13 10:28:31;;;;;;;0.50;0.50;;;;;28.70;98887.00;;;;5115125;28;20194;-74
2022/07/13 10:31:17;;;;;;;0.70;0.70;;;;;28.90;98882.00;;;;5115084;28;20292;-73
2022/07/13 10:33:45;;;;;;;0.60;0.60;;;;;29.20;98880.00;;;;5114942;28;20222;-72
2022/07/13 10:36:12;;;;;;;0.63;0.63;;;;;29.50;98877.00;;;;5097282;28;20271;-74
2022/07/13 10:38:39;;;;;;;0.68;0.68;;;;;29.60;98877.00;;;;5115048;28;20186;-74
2022/07/13 10:41:21;;;;;;;0.50;0.50;;;;;29.80;98876.00;;;;5114886;28;20214;-70
2022/07/13 10:44:02;;;;;;;0.50;0.50;;;;;29.60;98874.00;;;;5114891;28;20208;-71
2022/07/13 10:46:48;;;;;;;0.57;0.57;;;;;29.70;98873.00;;;;5114788;28;20241;-71
2022/07/13 10:49:35;;;;;;;0.80;0.80;;;;;30.10;98871.00;;;;5114890;28;20194;-71
2022/07/13 10:52:52;;;;;;;0.65;0.65;;;;;30.40;98872.00;;;;5114672;28;20251;-72
2022/07/13 10:55:33;;;;;;;0.57;0.57;;;;;30.10;98869.00;;;;5114803;28;20537;-69
2022/07/13 10:58:00;;;;;;;0.60;0.60;;;;;30.50;98875.00;;;;5114774;28;20194;-70
2022/07/13 11:00:44;;;;;;;0.50;0.50;;;;;30.50;98866.00;;;;5119826;28;20218;-69
2022/07/13 11:03:31;;;;;;;0.52;0.52;;;;;30.80;98860.00;;;;5097057;28;20573;-70
2022/07/13 11:06:05;;;;;;;0.70;0.70;;;;;31.20;98859.00;;;;5115033;28;20683;-69
2022/07/13 11:08:32;;;;;;;0.50;0.50;;;;;31.10;98859.00;;;;5114821;28;20629;-71
2022/07/13 11:11:13;;;;;;;4.75;0.93;;;;;31.20;98855.00;;;;5114759;28;20222;-70
2022/07/13 11:13:40;;;;;;;0.60;0.60;;;;;31.10;98846.00;;;;5113826;28;20209;-70
2022/07/13 11:16:08;;;;;;;0.60;0.60;;;;;31.20;98851.00;;;;5114582;28;20202;-71
2022/07/13 11:18:36;;;;;;;0.50;0.50;;;;;31.40;98852.00;;;;5114512;28;20285;-70
2022/07/13 11:21:05;;;;;;;0.80;0.80;;;;;31.30;98848.00;;;;5114358;28;20251;-70
2022/07/13 11:26:40;;;;;;;0.60;0.60;;;;;31.20;98845.00;;;;5114301;28;20190;-69
2022/07/13 11:29:15;;;;;;;0.60;0.60;;;;;31.10;98839.00;;;;5114221;28;20221;-69
2022/07/13 11:31:42;;;;;;;0.68;0.68;;;;;31.50;98840.00;;;;5114251;28;20629;-70
2022/07/13 11:34:09;;;;;;;0.60;0.60;;;;;31.30;98841.00;;;;5114175;28;20194;-70
2022/07/13 11:36:36;;;;;;;0.50;0.50;;;;;31.50;98842.00;;;;5096247;28;20193;-70
2022/07/13 11:39:20;;;;;;;0.70;0.70;;;;;31.80;98836.00;;;;5114168;28;20205;-71
2022/07/13 11:41:47;;;;;;;0.60;0.60;;;;;32.00;98836.00;;;;5114011;28;20316;-70
2022/07/13 11:44:14;;;;;;;0.60;0.60;;;;;32.20;98833.00;;;;5114194;28;20193;-71
2022/07/13 11:46:45;;;;;;;0.60;0.60;;;;;32.00;98835.00;;;;5113913;28;20198;-71
2022/07/13 11:49:12;;;;;;;1.25;1.25;;;;;32.00;98838.00;;;;5114073;28;20186;-71
2022/07/13 11:51:43;;;;;;;0.57;0.57;;;;;32.30;98826.00;;;;5114109;28;20227;-71
2022/07/13 11:54:14;;;;;;;0.60;0.60;;;;;32.60;98822.00;;;;5113969;28;20225;-71
2022/07/13 11:56:46;;;;;;;0.60;0.60;;;;;33.00;98818.00;;;;5114164;28;20369;-70
2022/07/13 11:59:13;;;;;;;0.50;0.50;;;;;33.10;98805.00;;;;5113983;28;20209;-71
2022/07/13 12:01:50;;;;;;;0.50;0.50;;;;;33.40;98804.00;;;;5113762;28;20296;-72
2022/07/13 12:04:23;;;;;;;0.60;0.60;;;;;33.50;98799.00;;;;5113809;28;20277;-70
2022/07/13 12:06:52;;;;;;;0.65;0.65;;;;;33.80;98800.00;;;;5113760;28;20221;-71
2022/07/13 12:09:19;;;;;;;0.60;0.60;;;;;34.00;98795.00;;;;5113718;28;20581;-73
2022/07/13 12:11:46;;;;;;;0.60;0.60;;;;;34.20;98792.00;;;;5113721;28;20189;-73
2022/07/13 12:14:14;;;;;;;0.80;0.80;;;;;34.60;98792.00;;;;5095807;28;20206;-73
2022/07/13 12:16:43;;;;;;;0.70;0.70;;;;;34.60;98787.00;;;;5113542;28;20190;-73
2022/07/13 12:19:10;;;;;;;0.60;0.60;;;;;35.00;98779.00;;;;5113520;28;20260;-73
2022/07/13 12:21:39;;;;;;;0.60;0.60;;;;;35.30;98778.00;;;;5113470;28;20221;-70
2022/07/13 12:24:06;;;;;;;2.03;0.98;;;;;35.90;98774.00;;;;5113946;28;20231;-69
2022/07/13 12:26:33;;;;;;;0.70;0.70;;;;;36.30;98784.00;;;;5117096;28;20527;-70
2022/07/13 12:29:00;;;;;;;0.60;0.60;;;;;36.20;98781.00;;;;5117095;28;20331;-70
2022/07/13 12:31:27;;;;;;;0.60;0.60;;;;;36.30;98774.00;;;;5116915;28;20419;-70
2022/07/13 12:33:54;;;;;;;0.70;0.70;;;;;36.50;98771.00;;;;5116969;28;20201;-71
2022/07/13 12:36:25;;;;;;;0.70;0.70;;;;;36.50;98752.00;;;;5116941;28;20652;-70
2022/07/13 12:39:00;;;;;;;0.75;0.75;;;;;36.90;98754.00;;;;5117049;28;20247;-69
2022/07/13 12:41:29;;;;;;;0.70;0.70;;;;;37.10;98765.00;;;;5098955;28;20225;-69
2022/07/13 12:43:58;;;;;;;0.70;0.70;;;;;37.00;98763.00;;;;5116876;28;20240;-70